sensor_id;sensor_type;location;lat;lon;timestamp;P1;durP1;ratioP1;P2;durP2;ratioP2
59950;SDS011;45812;53.540;9.774;2023-07-20T00:01:14;2.45;;;1.55;;
59950;SDS011;45812;53.540;9.774;2023-07-20T00:03:39;3.33;;;1.60;;
59950;SDS011;45812;53.540;9.774;2023-07-20T00:06:05;3.58;;;1.50;;
59950;SDS011;45812;53.540;9.774;2023-07-20T00:08:30;1.55;;;1.45;;
59950;SDS011;45812;53.540;9.774;2023-07-20T00:10:55;1.40;;;1.35;;
59950;SDS011;45812;53.540;9.774;2023-07-20T00:13:21;3.35;;;1.30;;
59950;SDS011;45812;53.540;9.774;2023-07-20T00:15:46;5.28;;;1.75;;
59950;SDS011;45812;53.540;9.774;2023-07-20T00:18:12;1.60;;;1.50;;
59950;SDS011;45812;53.540;9.774;2023-07-20T00:20:38;1.80;;;1.40;;
59950;SDS011;45812;53.540;9.774;2023-07-20T00:23:03;5.00;;;2.25;;
59950;SDS011;45812;53.540;9.774;2023-07-20T00:25:29;1.90;;;1.80;;
59950;SDS011;45812;53.540;9.774;2023-07-20T00:27:54;2.28;;;1.67;;
59950;SDS011;45812;53.540;9.774;2023-07-20T00:30:19;1.50;;;1.40;;
59950;SDS011;45812;53.540;9.774;2023-07-20T00:32:44;2.63;;;1.85;;
59950;SDS011;45812;53.540;9.774;2023-07-20T00:35:10;3.72;;;1.60;;
59950;SDS011;45812;53.540;9.774;2023-07-20T00:37:36;3.00;;;1.77;;
59950;SDS011;45812;53.540;9.774;2023-07-20T00:40:01;7.18;;;1.98;;
59950;SDS011;45812;53.540;9.774;2023-07-20T00:42:29;2.53;;;2.28;;
59950;SDS011;45812;53.540;9.774;2023-07-20T00:44:55;2.25;;;2.03;;
59950;SDS011;45812;53.540;9.774;2023-07-20T00:47:20;6.00;;;2.03;;
59950;SDS011;45812;53.540;9.774;2023-07-20T00:49:45;2.72;;;2.13;;
59950;SDS011;45812;53.540;9.774;2023-07-20T00:52:11;11.77;;;2.88;;
59950;SDS011;45812;53.540;9.774;2023-07-20T00:54:39;3.67;;;2.20;;
59950;SDS011;45812;53.540;9.774;2023-07-20T00:57:05;2.35;;;2.15;;
59950;SDS011;45812;53.540;9.774;2023-07-20T00:59:33;2.63;;;2.40;;
59950;SDS011;45812;53.540;9.774;2023-07-20T01:02:01;3.38;;;2.00;;
59950;SDS011;45812;53.540;9.774;2023-07-20T01:04:27;3.78;;;2.20;;
59950;SDS011;45812;53.540;9.774;2023-07-20T01:09:48;4.60;;;2.15;;
59950;SDS011;45812;53.540;9.774;2023-07-20T01:12:27;14.55;;;2.78;;
59950;SDS011;45812;53.540;9.774;2023-07-20T01:15:00;2.58;;;2.10;;
59950;SDS011;45812;53.540;9.774;2023-07-20T01:17:26;2.42;;;2.22;;
59950;SDS011;45812;53.540;9.774;2023-07-20T01:19:51;3.03;;;2.60;;
59950;SDS011;45812;53.540;9.774;2023-07-20T01:25:25;3.60;;;2.50;;
59950;SDS011;45812;53.540;9.774;2023-07-20T01:28:26;4.60;;;2.72;;
59950;SDS011;45812;53.540;9.774;2023-07-20T01:33:38;5.13;;;2.90;;
59950;SDS011;45812;53.540;9.774;2023-07-20T01:36:04;6.45;;;3.20;;
59950;SDS011;45812;53.540;9.774;2023-07-20T01:38:30;5.95;;;3.10;;
59950;SDS011;45812;53.540;9.774;2023-07-20T01:40:55;4.72;;;3.40;;
59950;SDS011;45812;53.540;9.774;2023-07-20T01:43:22;4.82;;;3.20;;
59950;SDS011;45812;53.540;9.774;2023-07-20T01:45:47;4.53;;;3.13;;
59950;SDS011;45812;53.540;9.774;2023-07-20T01:48:12;4.82;;;3.42;;
59950;SDS011;45812;53.540;9.774;2023-07-20T01:50:38;7.70;;;3.00;;
59950;SDS011;45812;53.540;9.774;2023-07-20T01:53:03;4.28;;;3.03;;
59950;SDS011;45812;53.540;9.774;2023-07-20T01:55:28;5.32;;;2.92;;
59950;SDS011;45812;53.540;9.774;2023-07-20T01:57:54;4.15;;;3.13;;
59950;SDS011;45812;53.540;9.774;2023-07-20T02:00:20;6.28;;;3.53;;
59950;SDS011;45812;53.540;9.774;2023-07-20T02:02:48;8.45;;;3.08;;
59950;SDS011;45812;53.540;9.774;2023-07-20T02:05:14;5.47;;;3.10;;
59950;SDS011;45812;53.540;9.774;2023-07-20T02:07:39;4.47;;;3.25;;
59950;SDS011;45812;53.540;9.774;2023-07-20T02:10:04;4.23;;;3.37;;
59950;SDS011;45812;53.540;9.774;2023-07-20T02:12:30;4.43;;;3.33;;
59950;SDS011;45812;53.540;9.774;2023-07-20T02:14:55;3.72;;;2.65;;
59950;SDS011;45812;53.540;9.774;2023-07-20T02:17:21;3.10;;;2.73;;
59950;SDS011;45812;53.540;9.774;2023-07-20T02:19:46;2.63;;;2.43;;
59950;SDS011;45812;53.540;9.774;2023-07-20T02:22:14;6.57;;;2.22;;
59950;SDS011;45812;53.540;9.774;2023-07-20T02:24:39;3.25;;;2.78;;
59950;SDS011;45812;53.540;9.774;2023-07-20T02:27:05;5.73;;;2.60;;
59950;SDS011;45812;53.540;9.774;2023-07-20T02:29:30;5.72;;;2.75;;
59950;SDS011;45812;53.540;9.774;2023-07-20T02:31:56;5.43;;;3.03;;
59950;SDS011;45812;53.540;9.774;2023-07-20T02:34:21;8.20;;;2.60;;
59950;SDS011;45812;53.540;9.774;2023-07-20T02:36:46;5.40;;;2.20;;
59950;SDS011;45812;53.540;9.774;2023-07-20T02:39:13;3.40;;;2.30;;
59950;SDS011;45812;53.540;9.774;2023-07-20T02:41:38;3.13;;;2.50;;
59950;SDS011;45812;53.540;9.774;2023-07-20T02:44:03;2.33;;;2.13;;
59950;SDS011;45812;53.540;9.774;2023-07-20T02:46:28;3.28;;;2.45;;
59950;SDS011;45812;53.540;9.774;2023-07-20T02:48:55;5.03;;;2.50;;
59950;SDS011;45812;53.540;9.774;2023-07-20T02:51:20;3.38;;;2.60;;
59950;SDS011;45812;53.540;9.774;2023-07-20T02:53:45;3.80;;;2.53;;
59950;SDS011;45812;53.540;9.774;2023-07-20T02:56:11;4.73;;;2.50;;
59950;SDS011;45812;53.540;9.774;2023-07-20T02:58:39;3.10;;;2.30;;
59950;SDS011;45812;53.540;9.774;2023-07-20T03:01:08;4.03;;;2.25;;
59950;SDS011;45812;53.540;9.774;2023-07-20T03:03:34;2.58;;;2.38;;
59950;SDS011;45812;53.540;9.774;2023-07-20T03:06:03;5.47;;;2.40;;
59950;SDS011;45812;53.540;9.774;2023-07-20T03:08:34;2.60;;;2.28;;
59950;SDS011;45812;53.540;9.774;2023-07-20T03:11:00;4.65;;;2.13;;
59950;SDS011;45812;53.540;9.774;2023-07-20T03:13:26;3.90;;;2.50;;
59950;SDS011;45812;53.540;9.774;2023-07-20T03:15:52;2.50;;;2.33;;
59950;SDS011;45812;53.540;9.774;2023-07-20T03:18:17;2.20;;;2.00;;
59950;SDS011;45812;53.540;9.774;2023-07-20T03:20:43;2.40;;;2.20;;
59950;SDS011;45812;53.540;9.774;2023-07-20T03:23:08;2.77;;;2.10;;
59950;SDS011;45812;53.540;9.774;2023-07-20T03:25:33;4.43;;;2.20;;
59950;SDS011;45812;53.540;9.774;2023-07-20T03:27:58;4.32;;;2.58;;
59950;SDS011;45812;53.540;9.774;2023-07-20T03:30:24;4.33;;;2.13;;
59950;SDS011;45812;53.540;9.774;2023-07-20T03:32:50;2.60;;;2.33;;
59950;SDS011;45812;53.540;9.774;2023-07-20T03:35:15;3.20;;;2.30;;
59950;SDS011;45812;53.540;9.774;2023-07-20T03:37:41;2.37;;;2.17;;
59950;SDS011;45812;53.540;9.774;2023-07-20T03:40:07;4.15;;;2.20;;
59950;SDS011;45812;53.540;9.774;2023-07-20T03:42:33;4.28;;;2.60;;
59950;SDS011;45812;53.540;9.774;2023-07-20T03:44:58;2.33;;;2.13;;
59950;SDS011;45812;53.540;9.774;2023-07-20T03:47:23;3.50;;;2.13;;
59950;SDS011;45812;53.540;9.774;2023-07-20T03:49:49;1.95;;;1.85;;
59950;SDS011;45812;53.540;9.774;2023-07-20T03:52:14;2.42;;;1.92;;
59950;SDS011;45812;53.540;9.774;2023-07-20T03:54:39;1.83;;;1.73;;
59950;SDS011;45812;53.540;9.774;2023-07-20T03:57:05;2.87;;;2.13;;
59950;SDS011;45812;53.540;9.774;2023-07-20T03:59:30;2.00;;;1.80;;
59950;SDS011;45812;53.540;9.774;2023-07-20T04:01:55;4.37;;;2.10;;
59950;SDS011;45812;53.540;9.774;2023-07-20T04:04:21;3.80;;;2.13;;
59950;SDS011;45812;53.540;9.774;2023-07-20T04:06:46;1.83;;;1.73;;
59950;SDS011;45812;53.540;9.774;2023-07-20T04:09:11;3.67;;;2.05;;
59950;SDS011;45812;53.540;9.774;2023-07-20T04:11:37;2.30;;;2.10;;
59950;SDS011;45812;53.540;9.774;2023-07-20T04:14:03;2.55;;;1.98;;
59950;SDS011;45812;53.540;9.774;2023-07-20T04:16:28;4.95;;;2.70;;
59950;SDS011;45812;53.540;9.774;2023-07-20T04:18:57;3.15;;;2.28;;
59950;SDS011;45812;53.540;9.774;2023-07-20T04:21:22;4.55;;;2.38;;
59950;SDS011;45812;53.540;9.774;2023-07-20T04:23:48;4.20;;;2.50;;
59950;SDS011;45812;53.540;9.774;2023-07-20T04:26:13;5.97;;;2.97;;
59950;SDS011;45812;53.540;9.774;2023-07-20T04:28:39;5.47;;;2.58;;
59950;SDS011;45812;53.540;9.774;2023-07-20T04:31:10;2.67;;;2.45;;
59950;SDS011;45812;53.540;9.774;2023-07-20T04:33:39;5.70;;;3.37;;
59950;SDS011;45812;53.540;9.774;2023-07-20T04:36:05;7.45;;;3.35;;
59950;SDS011;45812;53.540;9.774;2023-07-20T04:38:30;3.67;;;2.97;;
59950;SDS011;45812;53.540;9.774;2023-07-20T04:40:56;4.57;;;3.50;;
59950;SDS011;45812;53.540;9.774;2023-07-20T04:43:21;4.78;;;3.63;;
59950;SDS011;45812;53.540;9.774;2023-07-20T04:45:46;5.47;;;3.55;;
59950;SDS011;45812;53.540;9.774;2023-07-20T04:48:13;7.13;;;4.05;;
59950;SDS011;45812;53.540;9.774;2023-07-20T04:50:40;5.55;;;4.07;;
59950;SDS011;45812;53.540;9.774;2023-07-20T04:53:06;10.50;;;4.25;;
59950;SDS011;45812;53.540;9.774;2023-07-20T04:55:32;5.40;;;4.18;;
59950;SDS011;45812;53.540;9.774;2023-07-20T04:58:01;6.10;;;4.30;;
59950;SDS011;45812;53.540;9.774;2023-07-20T05:00:27;5.10;;;4.05;;
59950;SDS011;45812;53.540;9.774;2023-07-20T05:02:52;9.07;;;4.60;;
59950;SDS011;45812;53.540;9.774;2023-07-20T05:05:18;9.30;;;4.97;;
59950;SDS011;45812;53.540;9.774;2023-07-20T05:07:43;6.75;;;4.32;;
59950;SDS011;45812;53.540;9.774;2023-07-20T05:10:09;5.20;;;4.13;;
59950;SDS011;45812;53.540;9.774;2023-07-20T05:12:35;7.32;;;5.35;;
59950;SDS011;45812;53.540;9.774;2023-07-20T05:15:00;13.20;;;4.82;;
59950;SDS011;45812;53.540;9.774;2023-07-20T05:17:25;5.25;;;4.13;;
59950;SDS011;45812;53.540;9.774;2023-07-20T05:19:50;6.33;;;4.50;;
59950;SDS011;45812;53.540;9.774;2023-07-20T05:22:16;5.20;;;4.28;;
59950;SDS011;45812;53.540;9.774;2023-07-20T05:24:41;5.55;;;3.95;;
59950;SDS011;45812;53.540;9.774;2023-07-20T05:27:06;4.70;;;3.88;;
59950;SDS011;45812;53.540;9.774;2023-07-20T05:29:32;3.90;;;3.25;;
59950;SDS011;45812;53.540;9.774;2023-07-20T05:31:58;6.20;;;3.45;;
59950;SDS011;45812;53.540;9.774;2023-07-20T05:34:23;5.55;;;3.90;;
59950;SDS011;45812;53.540;9.774;2023-07-20T05:36:48;4.90;;;3.47;;
59950;SDS011;45812;53.540;9.774;2023-07-20T05:39:14;4.40;;;3.33;;
59950;SDS011;45812;53.540;9.774;2023-07-20T05:41:41;3.30;;;2.92;;
59950;SDS011;45812;53.540;9.774;2023-07-20T05:44:07;5.43;;;3.90;;
59950;SDS011;45812;53.540;9.774;2023-07-20T05:46:32;4.38;;;3.25;;
59950;SDS011;45812;53.540;9.774;2023-07-20T05:48:57;5.13;;;3.47;;
59950;SDS011;45812;53.540;9.774;2023-07-20T05:51:22;3.37;;;3.00;;
59950;SDS011;45812;53.540;9.774;2023-07-20T05:53:48;5.20;;;3.17;;
59950;SDS011;45812;53.540;9.774;2023-07-20T05:56:13;3.53;;;3.07;;
59950;SDS011;45812;53.540;9.774;2023-07-20T05:58:39;4.45;;;2.88;;
59950;SDS011;45812;53.540;9.774;2023-07-20T06:01:04;4.57;;;2.63;;
59950;SDS011;45812;53.540;9.774;2023-07-20T06:03:31;5.25;;;2.28;;
59950;SDS011;45812;53.540;9.774;2023-07-20T06:05:59;5.72;;;2.35;;
59950;SDS011;45812;53.540;9.774;2023-07-20T06:08:26;1.70;;;1.60;;
59950;SDS011;45812;53.540;9.774;2023-07-20T06:10:51;5.95;;;2.03;;
59950;SDS011;45812;53.540;9.774;2023-07-20T06:13:17;2.08;;;1.90;;
59950;SDS011;45812;53.540;9.774;2023-07-20T06:15:42;3.47;;;2.20;;
59950;SDS011;45812;53.540;9.774;2023-07-20T06:18:08;3.53;;;1.98;;
59950;SDS011;45812;53.540;9.774;2023-07-20T06:20:33;3.00;;;1.63;;
59950;SDS011;45812;53.540;9.774;2023-07-20T06:22:59;1.97;;;1.83;;
59950;SDS011;45812;53.540;9.774;2023-07-20T06:25:24;3.47;;;2.30;;
59950;SDS011;45812;53.540;9.774;2023-07-20T06:27:49;7.03;;;1.85;;
59950;SDS011;45812;53.540;9.774;2023-07-20T06:30:17;1.70;;;1.60;;
59950;SDS011;45812;53.540;9.774;2023-07-20T06:32:43;3.45;;;1.17;;
59950;SDS011;45812;53.540;9.774;2023-07-20T06:35:08;2.13;;;1.60;;
59950;SDS011;45812;53.540;9.774;2023-07-20T06:37:34;2.33;;;1.50;;
59950;SDS011;45812;53.540;9.774;2023-07-20T06:39:59;2.95;;;1.25;;
59950;SDS011;45812;53.540;9.774;2023-07-20T06:42:25;3.90;;;1.50;;
59950;SDS011;45812;53.540;9.774;2023-07-20T06:44:50;3.23;;;1.63;;
59950;SDS011;45812;53.540;9.774;2023-07-20T06:47:15;2.90;;;1.17;;
59950;SDS011;45812;53.540;9.774;2023-07-20T06:49:41;2.50;;;1.57;;
59950;SDS011;45812;53.540;9.774;2023-07-20T06:52:06;1.30;;;1.20;;
59950;SDS011;45812;53.540;9.774;2023-07-20T06:54:31;2.65;;;1.40;;
59950;SDS011;45812;53.540;9.774;2023-07-20T06:56:57;6.22;;;1.67;;
59950;SDS011;45812;53.540;9.774;2023-07-20T06:59:22;2.03;;;1.60;;
59950;SDS011;45812;53.540;9.774;2023-07-20T07:01:49;2.72;;;1.27;;
59950;SDS011;45812;53.540;9.774;2023-07-20T07:04:14;3.20;;;1.20;;
59950;SDS011;45812;53.540;9.774;2023-07-20T07:06:39;4.23;;;1.97;;
59950;SDS011;45812;53.540;9.774;2023-07-20T07:09:04;8.70;;;1.80;;
59950;SDS011;45812;53.540;9.774;2023-07-20T07:11:30;2.75;;;1.52;;
59950;SDS011;45812;53.540;9.774;2023-07-20T07:13:55;6.43;;;1.73;;
59950;SDS011;45812;53.540;9.774;2023-07-20T07:16:21;3.90;;;1.23;;
59950;SDS011;45812;53.540;9.774;2023-07-20T07:18:46;2.63;;;1.47;;
59950;SDS011;45812;53.540;9.774;2023-07-20T07:21:11;3.38;;;1.83;;
59950;SDS011;45812;53.540;9.774;2023-07-20T07:23:38;4.10;;;1.23;;
59950;SDS011;45812;53.540;9.774;2023-07-20T07:26:03;3.70;;;1.65;;
59950;SDS011;45812;53.540;9.774;2023-07-20T07:28:30;5.40;;;1.60;;
59950;SDS011;45812;53.540;9.774;2023-07-20T07:30:56;5.05;;;1.95;;
59950;SDS011;45812;53.540;9.774;2023-07-20T07:33:22;5.28;;;1.65;;
59950;SDS011;45812;53.540;9.774;2023-07-20T07:35:47;5.57;;;1.50;;
59950;SDS011;45812;53.540;9.774;2023-07-20T07:38:13;4.85;;;1.42;;
59950;SDS011;45812;53.540;9.774;2023-07-20T07:40:38;7.73;;;1.90;;
59950;SDS011;45812;53.540;9.774;2023-07-20T07:43:03;9.80;;;1.70;;
59950;SDS011;45812;53.540;9.774;2023-07-20T07:45:28;3.77;;;1.73;;
59950;SDS011;45812;53.540;9.774;2023-07-20T07:47:53;4.60;;;1.83;;
59950;SDS011;45812;53.540;9.774;2023-07-20T07:50:19;5.95;;;1.85;;
59950;SDS011;45812;53.540;9.774;2023-07-20T07:52:44;4.00;;;1.83;;
59950;SDS011;45812;53.540;9.774;2023-07-20T07:55:09;5.77;;;2.20;;
59950;SDS011;45812;53.540;9.774;2023-07-20T07:57:35;5.87;;;2.00;;
59950;SDS011;45812;53.540;9.774;2023-07-20T08:00:00;4.67;;;2.10;;
59950;SDS011;45812;53.540;9.774;2023-07-20T08:02:25;8.83;;;2.27;;
59950;SDS011;45812;53.540;9.774;2023-07-20T08:04:51;6.00;;;2.50;;
59950;SDS011;45812;53.540;9.774;2023-07-20T08:07:17;3.83;;;2.28;;
59950;SDS011;45812;53.540;9.774;2023-07-20T08:09:42;4.20;;;2.17;;
59950;SDS011;45812;53.540;9.774;2023-07-20T08:12:08;4.18;;;2.20;;
59950;SDS011;45812;53.540;9.774;2023-07-20T08:14:33;8.57;;;2.28;;
59950;SDS011;45812;53.540;9.774;2023-07-20T08:16:58;2.97;;;2.15;;
59950;SDS011;45812;53.540;9.774;2023-07-20T08:19:24;6.05;;;1.85;;
59950;SDS011;45812;53.540;9.774;2023-07-20T08:21:49;3.50;;;2.38;;
59950;SDS011;45812;53.540;9.774;2023-07-20T08:24:14;5.90;;;2.13;;
59950;SDS011;45812;53.540;9.774;2023-07-20T08:26:39;6.23;;;2.40;;
59950;SDS011;45812;53.540;9.774;2023-07-20T08:29:05;5.28;;;2.25;;
59950;SDS011;45812;53.540;9.774;2023-07-20T08:31:30;10.20;;;2.57;;
59950;SDS011;45812;53.540;9.774;2023-07-20T08:33:55;5.13;;;2.50;;
59950;SDS011;45812;53.540;9.774;2023-07-20T08:36:21;5.20;;;2.15;;
59950;SDS011;45812;53.540;9.774;2023-07-20T08:38:47;5.90;;;2.75;;
59950;SDS011;45812;53.540;9.774;2023-07-20T08:41:13;9.25;;;2.25;;
59950;SDS011;45812;53.540;9.774;2023-07-20T08:43:39;3.75;;;2.50;;
59950;SDS011;45812;53.540;9.774;2023-07-20T08:46:07;4.07;;;2.30;;
59950;SDS011;45812;53.540;9.774;2023-07-20T08:48:35;6.93;;;2.15;;
59950;SDS011;45812;53.540;9.774;2023-07-20T08:51:01;7.43;;;2.55;;
59950;SDS011;45812;53.540;9.774;2023-07-20T08:53:29;7.10;;;1.65;;
59950;SDS011;45812;53.540;9.774;2023-07-20T08:55:56;5.50;;;1.80;;
59950;SDS011;45812;53.540;9.774;2023-07-20T08:58:23;2.55;;;1.42;;
59950;SDS011;45812;53.540;9.774;2023-07-20T09:00:51;3.83;;;1.35;;
59950;SDS011;45812;53.540;9.774;2023-07-20T09:03:18;6.68;;;2.05;;
59950;SDS011;45812;53.540;9.774;2023-07-20T09:05:44;4.70;;;1.58;;
59950;SDS011;45812;53.540;9.774;2023-07-20T09:08:09;4.80;;;1.67;;
59950;SDS011;45812;53.540;9.774;2023-07-20T09:10:35;1.97;;;1.57;;
59950;SDS011;45812;53.540;9.774;2023-07-20T09:13:00;6.28;;;2.22;;
59950;SDS011;45812;53.540;9.774;2023-07-20T09:15:25;6.93;;;2.10;;
59950;SDS011;45812;53.540;9.774;2023-07-20T09:17:51;3.75;;;1.30;;
59950;SDS011;45812;53.540;9.774;2023-07-20T09:20:19;5.43;;;1.50;;
59950;SDS011;45812;53.540;9.774;2023-07-20T09:22:44;7.53;;;1.67;;
59950;SDS011;45812;53.540;9.774;2023-07-20T09:25:12;5.10;;;1.38;;
59950;SDS011;45812;53.540;9.774;2023-07-20T09:27:39;2.97;;;1.02;;
59950;SDS011;45812;53.540;9.774;2023-07-20T09:30:06;3.63;;;1.42;;
59950;SDS011;45812;53.540;9.774;2023-07-20T09:32:38;4.78;;;1.42;;
59950;SDS011;45812;53.540;9.774;2023-07-20T09:35:14;2.65;;;1.30;;
59950;SDS011;45812;53.540;9.774;2023-07-20T09:37:45;5.53;;;1.13;;
59950;SDS011;45812;53.540;9.774;2023-07-20T09:40:22;4.90;;;1.52;;
59950;SDS011;45812;53.540;9.774;2023-07-20T09:42:47;8.10;;;1.50;;
59950;SDS011;45812;53.540;9.774;2023-07-20T09:45:13;4.68;;;1.05;;
59950;SDS011;45812;53.540;9.774;2023-07-20T09:47:39;3.00;;;0.95;;
59950;SDS011;45812;53.540;9.774;2023-07-20T09:50:05;7.38;;;2.33;;
59950;SDS011;45812;53.540;9.774;2023-07-20T09:52:38;4.67;;;2.10;;
59950;SDS011;45812;53.540;9.774;2023-07-20T09:55:06;1.40;;;0.80;;
59950;SDS011;45812;53.540;9.774;2023-07-20T09:57:36;5.45;;;1.50;;
59950;SDS011;45812;53.540;9.774;2023-07-20T10:00:02;4.57;;;1.35;;
59950;SDS011;45812;53.540;9.774;2023-07-20T10:02:34;2.27;;;0.93;;
59950;SDS011;45812;53.540;9.774;2023-07-20T10:05:06;5.20;;;1.05;;
59950;SDS011;45812;53.540;9.774;2023-07-20T10:07:35;5.45;;;1.20;;
59950;SDS011;45812;53.540;9.774;2023-07-20T10:10:05;6.05;;;1.40;;
59950;SDS011;45812;53.540;9.774;2023-07-20T10:12:32;2.55;;;1.02;;
59950;SDS011;45812;53.540;9.774;2023-07-20T10:17:47;7.35;;;1.52;;
59950;SDS011;45812;53.540;9.774;2023-07-20T10:20:22;3.95;;;0.95;;
59950;SDS011;45812;53.540;9.774;2023-07-20T10:22:49;7.30;;;1.08;;
59950;SDS011;45812;53.540;9.774;2023-07-20T10:25:19;9.25;;;1.65;;
59950;SDS011;45812;53.540;9.774;2023-07-20T10:27:47;4.43;;;1.17;;
59950;SDS011;45812;53.540;9.774;2023-07-20T10:30:13;1.17;;;1.08;;
59950;SDS011;45812;53.540;9.774;2023-07-20T10:32:39;6.22;;;1.45;;
59950;SDS011;45812;53.540;9.774;2023-07-20T10:35:13;1.55;;;1.10;;
59950;SDS011;45812;53.540;9.774;2023-07-20T10:37:46;3.72;;;1.35;;
59950;SDS011;45812;53.540;9.774;2023-07-20T10:43:01;4.10;;;1.23;;
59950;SDS011;45812;53.540;9.774;2023-07-20T10:45:36;6.88;;;1.25;;
59950;SDS011;45812;53.540;9.774;2023-07-20T10:48:04;2.22;;;0.88;;
59950;SDS011;45812;53.540;9.774;2023-07-20T10:50:31;4.88;;;0.98;;
59950;SDS011;45812;53.540;9.774;2023-07-20T10:53:19;0.65;;;0.50;;
59950;SDS011;45812;53.540;9.774;2023-07-20T10:55:44;3.60;;;0.80;;
59950;SDS011;45812;53.540;9.774;2023-07-20T10:58:11;1.92;;;0.82;;
59950;SDS011;45812;53.540;9.774;2023-07-20T11:03:27;2.60;;;0.63;;
59950;SDS011;45812;53.540;9.774;2023-07-20T11:05:57;2.63;;;1.05;;
59950;SDS011;45812;53.540;9.774;2023-07-20T11:08:40;4.65;;;1.00;;
59950;SDS011;45812;53.540;9.774;2023-07-20T11:11:21;3.35;;;1.33;;
59950;SDS011;45812;53.540;9.774;2023-07-20T11:13:59;5.53;;;1.33;;
59950;SDS011;45812;53.540;9.774;2023-07-20T11:19:01;4.88;;;1.17;;
59950;SDS011;45812;53.540;9.774;2023-07-20T11:21:28;3.88;;;1.00;;
59950;SDS011;45812;53.540;9.774;2023-07-20T11:23:55;3.35;;;1.00;;
59950;SDS011;45812;53.540;9.774;2023-07-20T11:26:20;3.55;;;1.20;;
59950;SDS011;45812;53.540;9.774;2023-07-20T11:28:49;3.72;;;1.27;;
59950;SDS011;45812;53.540;9.774;2023-07-20T11:31:17;1.58;;;0.57;;
59950;SDS011;45812;53.540;9.774;2023-07-20T11:33:42;6.68;;;1.42;;
59950;SDS011;45812;53.540;9.774;2023-07-20T11:36:08;3.17;;;0.80;;
59950;SDS011;45812;53.540;9.774;2023-07-20T11:38:33;1.02;;;0.70;;
59950;SDS011;45812;53.540;9.774;2023-07-20T11:40:59;7.20;;;1.85;;
59950;SDS011;45812;53.540;9.774;2023-07-20T11:43:24;3.20;;;1.20;;
59950;SDS011;45812;53.540;9.774;2023-07-20T11:45:51;2.47;;;1.27;;
59950;SDS011;45812;53.540;9.774;2023-07-20T11:48:16;4.07;;;1.20;;
59950;SDS011;45812;53.540;9.774;2023-07-20T11:50:42;7.05;;;1.48;;
59950;SDS011;45812;53.540;9.774;2023-07-20T11:53:07;4.90;;;0.70;;
59950;SDS011;45812;53.540;9.774;2023-07-20T11:55:33;1.33;;;0.70;;
59950;SDS011;45812;53.540;9.774;2023-07-20T11:58:02;4.43;;;0.60;;
59950;SDS011;45812;53.540;9.774;2023-07-20T12:00:28;1.63;;;0.70;;
59950;SDS011;45812;53.540;9.774;2023-07-20T12:02:53;4.57;;;0.95;;
59950;SDS011;45812;53.540;9.774;2023-07-20T12:05:19;2.20;;;0.47;;
59950;SDS011;45812;53.540;9.774;2023-07-20T12:07:47;1.30;;;0.57;;
59950;SDS011;45812;53.540;9.774;2023-07-20T12:10:12;6.18;;;0.80;;
59950;SDS011;45812;53.540;9.774;2023-07-20T12:12:38;2.22;;;0.80;;
59950;SDS011;45812;53.540;9.774;2023-07-20T12:15:12;0.20;;;0.20;;
59950;SDS011;45812;53.540;9.774;2023-07-20T12:17:42;1.95;;;0.50;;
59950;SDS011;45812;53.540;9.774;2023-07-20T12:20:11;0.50;;;0.30;;
59950;SDS011;45812;53.540;9.774;2023-07-20T12:22:40;2.25;;;0.40;;
59950;SDS011;45812;53.540;9.774;2023-07-20T12:25:06;4.57;;;1.05;;
59950;SDS011;45812;53.540;9.774;2023-07-20T12:27:33;1.70;;;0.55;;
59950;SDS011;45812;53.540;9.774;2023-07-20T12:29:58;2.30;;;0.65;;
59950;SDS011;45812;53.540;9.774;2023-07-20T12:32:23;4.07;;;1.48;;
59950;SDS011;45812;53.540;9.774;2023-07-20T12:34:49;1.53;;;0.90;;
59950;SDS011;45812;53.540;9.774;2023-07-20T12:37:17;4.03;;;0.77;;
59950;SDS011;45812;53.540;9.774;2023-07-20T12:39:43;3.20;;;0.80;;
59950;SDS011;45812;53.540;9.774;2023-07-20T12:42:11;3.85;;;1.27;;
59950;SDS011;45812;53.540;9.774;2023-07-20T12:44:37;5.60;;;0.80;;
59950;SDS011;45812;53.540;9.774;2023-07-20T12:47:02;4.68;;;1.08;;
59950;SDS011;45812;53.540;9.774;2023-07-20T12:49:27;2.90;;;0.68;;
59950;SDS011;45812;53.540;9.774;2023-07-20T12:51:53;1.87;;;0.70;;
59950;SDS011;45812;53.540;9.774;2023-07-20T12:54:18;1.53;;;0.50;;
59950;SDS011;45812;53.540;9.774;2023-07-20T12:56:43;1.23;;;0.33;;
59950;SDS011;45812;53.540;9.774;2023-07-20T12:59:08;0.50;;;0.40;;
59950;SDS011;45812;53.540;9.774;2023-07-20T13:01:34;1.83;;;0.70;;
59950;SDS011;45812;53.540;9.774;2023-07-20T13:03:59;3.87;;;0.93;;
59950;SDS011;45812;53.540;9.774;2023-07-20T13:06:24;4.80;;;0.90;;
59950;SDS011;45812;53.540;9.774;2023-07-20T13:08:49;1.60;;;0.90;;
59950;SDS011;45812;53.540;9.774;2023-07-20T13:11:15;2.88;;;0.80;;
59950;SDS011;45812;53.540;9.774;2023-07-20T13:13:41;3.03;;;0.60;;
59950;SDS011;45812;53.540;9.774;2023-07-20T13:16:06;2.35;;;0.90;;
59950;SDS011;45812;53.540;9.774;2023-07-20T13:18:31;3.90;;;0.70;;
59950;SDS011;45812;53.540;9.774;2023-07-20T13:20:56;0.67;;;0.47;;
59950;SDS011;45812;53.540;9.774;2023-07-20T13:23:22;2.47;;;0.40;;
59950;SDS011;45812;53.540;9.774;2023-07-20T13:25:47;1.38;;;0.60;;
59950;SDS011;45812;53.540;9.774;2023-07-20T13:28:12;4.30;;;1.00;;
59950;SDS011;45812;53.540;9.774;2023-07-20T13:30:38;2.67;;;0.80;;
59950;SDS011;45812;53.540;9.774;2023-07-20T13:33:03;1.52;;;0.65;;
59950;SDS011;45812;53.540;9.774;2023-07-20T13:35:28;2.53;;;0.60;;
59950;SDS011;45812;53.540;9.774;2023-07-20T13:37:53;5.80;;;0.80;;
59950;SDS011;45812;53.540;9.774;2023-07-20T13:40:19;2.47;;;0.87;;
59950;SDS011;45812;53.540;9.774;2023-07-20T13:42:44;3.40;;;0.93;;
59950;SDS011;45812;53.540;9.774;2023-07-20T13:45:10;4.60;;;1.35;;
59950;SDS011;45812;53.540;9.774;2023-07-20T13:47:35;5.80;;;0.80;;
59950;SDS011;45812;53.540;9.774;2023-07-20T13:50:00;0.93;;;0.70;;
59950;SDS011;45812;53.540;9.774;2023-07-20T13:52:26;4.80;;;0.82;;
59950;SDS011;45812;53.540;9.774;2023-07-20T13:54:51;2.30;;;1.00;;
59950;SDS011;45812;53.540;9.774;2023-07-20T13:57:16;2.17;;;0.70;;
59950;SDS011;45812;53.540;9.774;2023-07-20T13:59:42;1.33;;;0.77;;
59950;SDS011;45812;53.540;9.774;2023-07-20T14:02:07;6.60;;;1.50;;
59950;SDS011;45812;53.540;9.774;2023-07-20T14:04:33;1.07;;;0.73;;
59950;SDS011;45812;53.540;9.774;2023-07-20T14:06:58;2.97;;;1.33;;
59950;SDS011;45812;53.540;9.774;2023-07-20T14:09:23;3.53;;;0.77;;
59950;SDS011;45812;53.540;9.774;2023-07-20T14:11:49;4.07;;;0.70;;
59950;SDS011;45812;53.540;9.774;2023-07-20T14:14:14;4.87;;;1.00;;
59950;SDS011;45812;53.540;9.774;2023-07-20T14:16:39;1.07;;;0.63;;
59950;SDS011;45812;53.540;9.774;2023-07-20T14:19:04;0.97;;;0.53;;
59950;SDS011;45812;53.540;9.774;2023-07-20T14:21:30;4.37;;;1.80;;
59950;SDS011;45812;53.540;9.774;2023-07-20T14:23:56;1.17;;;0.98;;
59950;SDS011;45812;53.540;9.774;2023-07-20T14:26:22;4.75;;;1.17;;
59950;SDS011;45812;53.540;9.774;2023-07-20T14:28:48;5.28;;;1.00;;
59950;SDS011;45812;53.540;9.774;2023-07-20T14:31:13;2.03;;;0.93;;
59950;SDS011;45812;53.540;9.774;2023-07-20T14:33:39;4.82;;;1.52;;
59950;SDS011;45812;53.540;9.774;2023-07-20T14:36:04;6.28;;;1.25;;
59950;SDS011;45812;53.540;9.774;2023-07-20T14:38:33;2.20;;;0.75;;
59950;SDS011;45812;53.540;9.774;2023-07-20T14:40:59;1.80;;;0.63;;
59950;SDS011;45812;53.540;9.774;2023-07-20T14:43:25;3.63;;;0.98;;
59950;SDS011;45812;53.540;9.774;2023-07-20T14:45:50;7.03;;;1.60;;
59950;SDS011;45812;53.540;9.774;2023-07-20T14:48:15;2.77;;;0.80;;
59950;SDS011;45812;53.540;9.774;2023-07-20T14:50:40;4.63;;;1.20;;
59950;SDS011;45812;53.540;9.774;2023-07-20T14:53:06;2.37;;;0.53;;
59950;SDS011;45812;53.540;9.774;2023-07-20T14:55:32;5.32;;;1.90;;
59950;SDS011;45812;53.540;9.774;2023-07-20T14:57:57;4.27;;;1.30;;
59950;SDS011;45812;53.540;9.774;2023-07-20T15:00:22;3.43;;;1.77;;
59950;SDS011;45812;53.540;9.774;2023-07-20T15:02:48;7.15;;;2.17;;